• Join FlightAware (Why Join?)
  • Login
  • US Flag 
05:14PM EDT


 

Airport Tracker/Info


-or-


 

Live Flight TrackerFlight Track Log ✈ EJA922 ✈ 18-Aug-2013 ✈ KBEH - KIAD

Flight Track Log - Related Links

Times and Time Zones

All times are in EDT time to prevent confusion due to time zone crossing. See the EJA922 flight status page for this flight to view local times or setup timezone preferences in your user account.

Time Position Orientation Groundspeed Altitude Reporting Facility
EDT Latitude Longitude Course Direction KTS MPH feet Rate Location/Type
05:52PM 42.1711 -86.2214 96° East 273 314 8,100  Level Chicago Center
05:53PM 42.1697 -86.1172 91° East 281 323 8,400 900 Climbing Chicago Center
05:54PM 42.1556 -86.0128 100° East 283 326 10,000 1,500 Climbing Chicago Center
05:55PM 42.1361 -85.8753 101° East 341 392 11,500 1,800 Climbing Chicago Center
05:56PM 42.1189 -85.7392 100° East 369 425 13,800 2,280 Climbing Chicago Center
05:57PM 42.0567 -85.5299 96° East  Level FlightAware Approximate
05:57PM 42.0989 -85.5967 101° East 386 444 16,300  Level Chicago Center
05:58PM 42.0806 -85.4522 100° East 393 452 18,500 2,100 Climbing Chicago Center
05:59PM 42.0603 -85.3069 101° East 397 457 20,700 2,160 Climbing Chicago Center
06:00PM 42.0414 -85.1236 98° East 411 473 23,000 1,500 Climbing Chicago Center
06:01PM 42.0378 -84.9625 92° East 430 495 23,900 900 Climbing Chicago Center
06:02PM 42.0397 -84.7911 89° East 455 524 24,900 1,020 Climbing Chicago Center
06:03PM 42.0119 -84.6206 102° East 471 542 26,100 1,680 Climbing Chicago Center
06:04PM 41.9281 -84.4519 124° Southeast 468 539 28,400 2,040 Climbing Chicago Center
06:05PM 41.8553 -84.3061 124° Southeast 467 537 30,400 1,860 Climbing Chicago Center
06:06PM 41.7828 -84.1625 124° Southeast 466 536 32,300 1,200 Climbing Chicago Center
06:07PM 41.6986 -83.9983 124° Southeast 473 544 33,000 300 Climbing Cleveland Center
06:08PM 41.6175 -83.8414 125° Southeast 485 558 33,000 180 Level Cleveland Center
06:09PM 41.5386 -83.6819 123° Southeast 502 578 33,400 1,140 Climbing Cleveland Center
06:10PM 41.4592 -83.5286 125° Southeast 508 585 35,300 2,100 Climbing Cleveland Center
06:11PM 41.3858 -83.3814 124° Southeast 503 579 37,600 2,100 Climbing Cleveland Center
06:12PM 41.3081 -83.2369 126° Southeast 487 560 39,500 1,680 Climbing Cleveland Center
06:13PM 41.2342 -83.0931 124° Southeast 478 550 41,000 720 Climbing Cleveland Center
06:14PM 41.1661 -82.9581 124° Southeast 483 556 41,000  Level Cleveland Center
06:15PM 41.0836 -82.8008 125° Southeast 496 571 41,000  Level Cleveland Center
06:16PM 41.0033 -82.6467 125° Southeast 508 585 41,000  Level Cleveland Center
06:17PM 40.9267 -82.4986 124° Southeast 508 585 41,000  Level Cleveland Center
06:18PM 40.8478 -82.3481 125° Southeast 503 579 41,000  Level Cleveland Center
06:21PM 40.6492 -81.9753 125° Southeast 496 571 41,000  Level Indianapolis Center
06:22PM 40.5703 -81.8272 125° Southeast 493 567 41,000  Level Indianapolis Center
06:23PM 40.4903 -81.6794 125° Southeast 492 566 41,000  Level Indianapolis Center
06:24PM 40.3969 -81.5072 125° Southeast 492 566 41,000  Level Indianapolis Center
06:25PM 40.3164 -81.3597 126° Southeast 495 570 41,000  Level Indianapolis Center
06:26PM 40.2361 -81.2139 126° Southeast 490 564 41,000  Level Indianapolis Center
06:27PM 40.1556 -81.0672 126° Southeast 492 566 41,000  Level Indianapolis Center
06:28PM 40.0742 -80.9203 126° Southeast 495 570 41,000  Level Indianapolis Center
06:29PM 39.9936 -80.7700 125° Southeast 500 575 41,000  Level Indianapolis Center
06:30PM 39.9197 -80.6131 122° Southeast 511 588 41,000  Level Indianapolis Center
06:31PM 39.8289 -80.4231 122° Southeast 514 592 41,000 -480 Level Indianapolis Center
06:32PM 39.7525 -80.2628 122° Southeast 518 596 40,100 -1,260 Descending Indianapolis Center
06:33PM 39.6658 -80.0814 122° Southeast 514 592 38,300 -2,700 Descending Cleveland Center
06:34PM 39.5878 -79.9206 122° Southeast 519 597 34,300 -3,900 Descending Cleveland Center
06:36PM 39.5331 -79.7086 108° East 550 633 29,500 -3,300 Descending Washington Center
06:37PM 39.4997 -79.5211 103° East 552 635 27,000 -1,680 Descending Washington Center
06:38PM 39.4658 -79.3389 103° East 535 616 26,300 -1,140 Descending Washington Center
06:39PM 39.4294 -79.1597 105° East 500 575 24,800 -1,800 Descending Washington Center
06:40PM 39.4025 -79.0133 103° East 463 533 22,700 -2,160 Descending Washington Center
06:41PM 39.3775 -78.8644 102° East 427 491 20,600 -2,220 Descending Washington Center
06:42PM 39.3519 -78.7264 103° East 412 474 18,400 -2,040 Descending Washington Center
06:43PM 39.3283 -78.5939 103° East 389 448 16,500 -1,860 Descending Washington Center
06:44PM 39.3044 -78.4617 103° East 376 433 14,700 -1,860 Descending Washington Center
06:45PM 39.2739 -78.3425 108° East 371 427 12,900 -1,860 Descending Washington Center
06:46PM 39.2197 -78.2439 125° Southeast 344 396 11,100 -1,440 Descending Washington Center
06:47PM 39.1736 -78.1567 124° Southeast 323 372 10,100 -600 Descending Washington Center
06:48PM 39.1278 -78.0667 123° Southeast 304 350 10,000 -540 Descending Washington Center
06:49PM 39.0814 -77.9794 124° Southeast 298 343 9,100 -1,140 Descending Washington Center
06:50PM 39.0433 -77.9114 126° Southeast 298 343 7,800 -1,320 Descending Washington Center
06:51PM 38.9969 -77.8219 124° Southeast 292 336 6,600 -840 Descending Washington Center
06:52PM 38.9633 -77.7247 114° Southeast 281 323 6,100 -300 Descending Washington Center
06:53PM 38.9333 -77.6167 110° East 257 296 6,000 -660 Descending Potomac TRACON
06:54PM 38.8833 -77.5833 153° Southeast 234 269 4,800 -1,200 Descending Potomac TRACON
06:55PM 38.8167 -77.5667 169° South 228 262 3,800 -960 Descending Potomac TRACON
06:56PM 38.7667 -77.5833 195° South 223 257 3,000 -420 Descending Potomac TRACON
06:57PM 38.7500 -77.5167 108° East 225 259 3,000 -300 Level Potomac TRACON
06:58PM 38.7833 -77.4667 49° Northeast 212 244 2,400 -600 Descending Potomac TRACON
06:59PM 38.8333 -77.4333 27° Northeast 204 235 1,800 -600 Descending Potomac TRACON
07:00PM 38.8833 -77.4333 360° North 147 169 1,200 -720 Descending Potomac TRACON
07:01PM 38.9167 -77.4333 360° North 126 145 500 -720 Descending Potomac TRACON
07:03PM 38.9333 -77.4500 322° Northwest  Level FlightAware Approximate
07:10PM 38.9474 -77.4599 322° Northwest  Level Estimated
07:11PM 38.9474 -77.4599 322° Northwest  Level Estimated